sensor_id;sensor_type;location;lat;lon;timestamp;P1;durP1;ratioP1;P2;durP2;ratioP2
15454;SDS011;21057;51.024;7.540;2024-02-23T00:00:54;21.70;;;20.40;;
15454;SDS011;21057;51.024;7.540;2024-02-23T00:03:21;21.60;;;20.30;;
15454;SDS011;21057;51.024;7.540;2024-02-23T00:05:48;22.10;;;20.70;;
15454;SDS011;21057;51.024;7.540;2024-02-23T00:08:15;20.60;;;19.40;;
15454;SDS011;21057;51.024;7.540;2024-02-23T00:10:41;21.33;;;20.03;;
15454;SDS011;21057;51.024;7.540;2024-02-23T00:13:10;21.93;;;20.53;;
15454;SDS011;21057;51.024;7.540;2024-02-23T00:15:37;22.20;;;20.90;;
15454;SDS011;21057;51.024;7.540;2024-02-23T00:18:03;21.13;;;19.83;;
15454;SDS011;21057;51.024;7.540;2024-02-23T00:20:31;21.20;;;19.80;;
15454;SDS011;21057;51.024;7.540;2024-02-23T00:22:58;21.83;;;20.53;;
15454;SDS011;21057;51.024;7.540;2024-02-23T00:25:25;21.07;;;19.77;;
15454;SDS011;21057;51.024;7.540;2024-02-23T00:27:52;21.17;;;19.97;;
15454;SDS011;21057;51.024;7.540;2024-02-23T00:30:20;20.23;;;19.03;;
15454;SDS011;21057;51.024;7.540;2024-02-23T00:32:47;20.43;;;19.23;;
15454;SDS011;21057;51.024;7.540;2024-02-23T00:35:14;21.00;;;19.70;;
15454;SDS011;21057;51.024;7.540;2024-02-23T00:37:41;20.40;;;19.20;;
15454;SDS011;21057;51.024;7.540;2024-02-23T00:40:08;20.73;;;19.53;;
15454;SDS011;21057;51.024;7.540;2024-02-23T00:42:35;20.77;;;19.47;;
15454;SDS011;21057;51.024;7.540;2024-02-23T00:45:02;20.13;;;18.93;;
15454;SDS011;21057;51.024;7.540;2024-02-23T00:47:31;19.87;;;18.67;;
15454;SDS011;21057;51.024;7.540;2024-02-23T00:50:00;21.00;;;19.80;;
15454;SDS011;21057;51.024;7.540;2024-02-23T00:52:27;21.63;;;20.23;;
15454;SDS011;21057;51.024;7.540;2024-02-23T00:54:54;23.83;;;22.43;;
15454;SDS011;21057;51.024;7.540;2024-02-23T00:57:20;23.70;;;22.10;;
15454;SDS011;21057;51.024;7.540;2024-02-23T00:59:52;24.00;;;22.60;;
15454;SDS011;21057;51.024;7.540;2024-02-23T01:02:19;24.00;;;22.60;;
15454;SDS011;21057;51.024;7.540;2024-02-23T01:04:47;25.17;;;23.77;;
15454;SDS011;21057;51.024;7.540;2024-02-23T01:07:14;24.37;;;22.97;;
15454;SDS011;21057;51.024;7.540;2024-02-23T01:09:40;23.27;;;21.97;;
15454;SDS011;21057;51.024;7.540;2024-02-23T01:12:07;23.70;;;22.30;;
15454;SDS011;21057;51.024;7.540;2024-02-23T01:14:34;24.47;;;23.07;;
15454;SDS011;21057;51.024;7.540;2024-02-23T01:17:01;23.17;;;21.87;;
15454;SDS011;21057;51.024;7.540;2024-02-23T01:19:28;24.27;;;22.87;;
15454;SDS011;21057;51.024;7.540;2024-02-23T01:21:56;23.53;;;22.13;;
15454;SDS011;21057;51.024;7.540;2024-02-23T01:24:25;24.20;;;22.80;;
15454;SDS011;21057;51.024;7.540;2024-02-23T01:26:52;24.20;;;22.80;;
15454;SDS011;21057;51.024;7.540;2024-02-23T01:29:20;24.27;;;22.87;;
15454;SDS011;21057;51.024;7.540;2024-02-23T01:31:47;24.77;;;23.27;;
15454;SDS011;21057;51.024;7.540;2024-02-23T01:34:14;24.73;;;23.23;;
15454;SDS011;21057;51.024;7.540;2024-02-23T01:36:41;24.00;;;22.50;;
15454;SDS011;21057;51.024;7.540;2024-02-23T01:39:09;25.47;;;23.80;;
15454;SDS011;21057;51.024;7.540;2024-02-23T01:41:36;24.87;;;23.37;;
15454;SDS011;21057;51.024;7.540;2024-02-23T01:44:03;25.37;;;23.77;;
15454;SDS011;21057;51.024;7.540;2024-02-23T01:46:30;25.47;;;23.97;;
15454;SDS011;21057;51.024;7.540;2024-02-23T01:48:57;25.10;;;23.53;;
15454;SDS011;21057;51.024;7.540;2024-02-23T01:51:24;23.90;;;22.40;;
15454;SDS011;21057;51.024;7.540;2024-02-23T01:53:51;24.67;;;23.17;;
15454;SDS011;21057;51.024;7.540;2024-02-23T01:56:20;23.87;;;22.47;;
15454;SDS011;21057;51.024;7.540;2024-02-23T01:58:47;23.67;;;22.27;;
15454;SDS011;21057;51.024;7.540;2024-02-23T02:01:14;22.77;;;21.37;;
15454;SDS011;21057;51.024;7.540;2024-02-23T02:03:41;23.27;;;21.87;;
15454;SDS011;21057;51.024;7.540;2024-02-23T02:06:09;23.50;;;22.10;;
15454;SDS011;21057;51.024;7.540;2024-02-23T02:08:37;23.67;;;22.27;;
15454;SDS011;21057;51.024;7.540;2024-02-23T02:11:04;23.20;;;21.80;;
15454;SDS011;21057;51.024;7.540;2024-02-23T02:13:32;22.73;;;21.43;;
15454;SDS011;21057;51.024;7.540;2024-02-23T02:16:00;24.17;;;22.57;;
15454;SDS011;21057;51.024;7.540;2024-02-23T02:18:27;22.80;;;21.40;;
15454;SDS011;21057;51.024;7.540;2024-02-23T02:20:55;23.53;;;22.13;;
15454;SDS011;21057;51.024;7.540;2024-02-23T02:23:23;24.27;;;22.87;;
15454;SDS011;21057;51.024;7.540;2024-02-23T02:25:54;23.40;;;22.00;;
15454;SDS011;21057;51.024;7.540;2024-02-23T02:28:21;23.47;;;22.07;;
15454;SDS011;21057;51.024;7.540;2024-02-23T02:30:50;22.80;;;21.50;;
15454;SDS011;21057;51.024;7.540;2024-02-23T02:33:17;23.93;;;22.43;;
15454;SDS011;21057;51.024;7.540;2024-02-23T02:35:44;23.17;;;21.57;;
15454;SDS011;21057;51.024;7.540;2024-02-23T02:38:11;24.10;;;22.70;;
15454;SDS011;21057;51.024;7.540;2024-02-23T02:40:38;23.27;;;21.80;;
15454;SDS011;21057;51.024;7.540;2024-02-23T02:43:05;23.20;;;21.80;;
15454;SDS011;21057;51.024;7.540;2024-02-23T02:45:32;23.07;;;21.67;;
15454;SDS011;21057;51.024;7.540;2024-02-23T02:48:00;22.93;;;21.63;;
15454;SDS011;21057;51.024;7.540;2024-02-23T02:50:28;22.40;;;21.10;;
15454;SDS011;21057;51.024;7.540;2024-02-23T02:52:54;23.47;;;22.07;;
15454;SDS011;21057;51.024;7.540;2024-02-23T02:55:21;22.87;;;21.47;;
15454;SDS011;21057;51.024;7.540;2024-02-23T02:57:48;22.97;;;21.57;;
15454;SDS011;21057;51.024;7.540;2024-02-23T03:00:15;22.93;;;21.57;;
15454;SDS011;21057;51.024;7.540;2024-02-23T03:02:42;23.63;;;22.23;;
15454;SDS011;21057;51.024;7.540;2024-02-23T03:05:10;23.97;;;22.57;;
15454;SDS011;21057;51.024;7.540;2024-02-23T03:07:37;22.53;;;21.23;;
15454;SDS011;21057;51.024;7.540;2024-02-23T03:10:04;22.27;;;20.97;;
15454;SDS011;21057;51.024;7.540;2024-02-23T03:12:31;23.63;;;22.23;;
15454;SDS011;21057;51.024;7.540;2024-02-23T03:14:58;22.27;;;20.97;;
15454;SDS011;21057;51.024;7.540;2024-02-23T03:17:27;22.87;;;21.53;;
15454;SDS011;21057;51.024;7.540;2024-02-23T03:19:53;22.03;;;20.73;;
15454;SDS011;21057;51.024;7.540;2024-02-23T03:22:22;21.80;;;20.50;;
15454;SDS011;21057;51.024;7.540;2024-02-23T03:24:48;21.47;;;20.10;;
15454;SDS011;21057;51.024;7.540;2024-02-23T03:27:15;21.40;;;20.10;;
15454;SDS011;21057;51.024;7.540;2024-02-23T03:29:42;21.83;;;20.53;;
15454;SDS011;21057;51.024;7.540;2024-02-23T03:32:09;21.30;;;20.00;;
15454;SDS011;21057;51.024;7.540;2024-02-23T03:34:35;22.53;;;20.93;;
15454;SDS011;21057;51.024;7.540;2024-02-23T03:37:02;21.97;;;20.67;;
15454;SDS011;21057;51.024;7.540;2024-02-23T03:39:31;22.37;;;20.97;;
15454;SDS011;21057;51.024;7.540;2024-02-23T03:41:58;21.67;;;20.37;;
15454;SDS011;21057;51.024;7.540;2024-02-23T03:44:24;21.87;;;20.47;;
15454;SDS011;21057;51.024;7.540;2024-02-23T03:46:51;21.10;;;19.80;;
15454;SDS011;21057;51.024;7.540;2024-02-23T03:49:18;21.00;;;19.70;;
15454;SDS011;21057;51.024;7.540;2024-02-23T03:51:45;21.20;;;19.90;;
15454;SDS011;21057;51.024;7.540;2024-02-23T03:54:12;21.50;;;20.20;;
15454;SDS011;21057;51.024;7.540;2024-02-23T03:56:40;21.57;;;20.27;;
15454;SDS011;21057;51.024;7.540;2024-02-23T03:59:08;22.07;;;20.77;;
15454;SDS011;21057;51.024;7.540;2024-02-23T04:01:35;21.90;;;20.50;;
15454;SDS011;21057;51.024;7.540;2024-02-23T04:04:02;21.43;;;20.13;;
15454;SDS011;21057;51.024;7.540;2024-02-23T04:06:29;21.77;;;20.47;;
15454;SDS011;21057;51.024;7.540;2024-02-23T04:08:57;21.33;;;20.03;;
15454;SDS011;21057;51.024;7.540;2024-02-23T04:11:23;21.67;;;20.37;;
15454;SDS011;21057;51.024;7.540;2024-02-23T04:13:51;21.10;;;19.80;;
15454;SDS011;21057;51.024;7.540;2024-02-23T04:16:22;22.00;;;20.70;;
15454;SDS011;21057;51.024;7.540;2024-02-23T04:18:49;22.53;;;20.93;;
15454;SDS011;21057;51.024;7.540;2024-02-23T04:21:16;22.40;;;20.80;;
15454;SDS011;21057;51.024;7.540;2024-02-23T04:23:43;22.43;;;21.07;;
15454;SDS011;21057;51.024;7.540;2024-02-23T04:26:10;22.23;;;20.83;;
15454;SDS011;21057;51.024;7.540;2024-02-23T04:28:37;21.97;;;20.67;;
15454;SDS011;21057;51.024;7.540;2024-02-23T04:31:07;22.20;;;20.80;;
15454;SDS011;21057;51.024;7.540;2024-02-23T04:33:34;23.23;;;21.83;;
15454;SDS011;21057;51.024;7.540;2024-02-23T04:36:01;23.80;;;22.40;;
15454;SDS011;21057;51.024;7.540;2024-02-23T04:38:29;23.07;;;21.67;;
15454;SDS011;21057;51.024;7.540;2024-02-23T04:40:56;22.10;;;20.80;;
15454;SDS011;21057;51.024;7.540;2024-02-23T04:43:23;23.00;;;21.60;;
15454;SDS011;21057;51.024;7.540;2024-02-23T04:45:50;21.37;;;20.07;;
15454;SDS011;21057;51.024;7.540;2024-02-23T04:48:18;22.97;;;21.10;;
15454;SDS011;21057;51.024;7.540;2024-02-23T04:50:45;21.53;;;20.23;;
15454;SDS011;21057;51.024;7.540;2024-02-23T04:53:12;21.23;;;19.93;;
15454;SDS011;21057;51.024;7.540;2024-02-23T04:55:39;24.13;;;21.87;;
15454;SDS011;21057;51.024;7.540;2024-02-23T04:58:06;23.07;;;21.67;;
15454;SDS011;21057;51.024;7.540;2024-02-23T05:00:33;22.37;;;21.07;;
15454;SDS011;21057;51.024;7.540;2024-02-23T05:03:00;22.77;;;21.20;;
15454;SDS011;21057;51.024;7.540;2024-02-23T05:05:29;22.00;;;20.70;;
15454;SDS011;21057;51.024;7.540;2024-02-23T05:07:56;21.70;;;20.40;;
15454;SDS011;21057;51.024;7.540;2024-02-23T05:10:23;22.63;;;21.23;;
15454;SDS011;21057;51.024;7.540;2024-02-23T05:12:50;21.50;;;20.20;;
15454;SDS011;21057;51.024;7.540;2024-02-23T05:15:17;22.47;;;20.97;;
15454;SDS011;21057;51.024;7.540;2024-02-23T05:17:44;21.13;;;19.83;;
15454;SDS011;21057;51.024;7.540;2024-02-23T05:20:10;21.67;;;20.37;;
15454;SDS011;21057;51.024;7.540;2024-02-23T05:22:39;21.80;;;20.50;;
15454;SDS011;21057;51.024;7.540;2024-02-23T05:25:06;22.57;;;21.27;;
15454;SDS011;21057;51.024;7.540;2024-02-23T05:27:33;22.93;;;21.63;;
15454;SDS011;21057;51.024;7.540;2024-02-23T05:30:00;21.80;;;20.50;;
15454;SDS011;21057;51.024;7.540;2024-02-23T05:32:28;21.47;;;20.17;;
15454;SDS011;21057;51.024;7.540;2024-02-23T05:34:54;21.70;;;20.40;;
15454;SDS011;21057;51.024;7.540;2024-02-23T05:37:22;21.70;;;20.40;;
15454;SDS011;21057;51.024;7.540;2024-02-23T05:39:50;20.80;;;19.60;;
15454;SDS011;21057;51.024;7.540;2024-02-23T05:42:17;22.27;;;20.97;;
15454;SDS011;21057;51.024;7.540;2024-02-23T05:44:44;22.77;;;21.40;;
15454;SDS011;21057;51.024;7.540;2024-02-23T05:47:13;21.77;;;20.47;;
15454;SDS011;21057;51.024;7.540;2024-02-23T05:49:40;22.53;;;21.13;;
15454;SDS011;21057;51.024;7.540;2024-02-23T05:52:07;22.33;;;21.00;;
15454;SDS011;21057;51.024;7.540;2024-02-23T05:54:34;23.20;;;21.80;;
15454;SDS011;21057;51.024;7.540;2024-02-23T05:57:03;23.00;;;21.60;;
15454;SDS011;21057;51.024;7.540;2024-02-23T05:59:30;23.83;;;22.33;;
15454;SDS011;21057;51.024;7.540;2024-02-23T06:01:57;24.63;;;23.03;;
15454;SDS011;21057;51.024;7.540;2024-02-23T06:04:23;25.97;;;24.27;;
15454;SDS011;21057;51.024;7.540;2024-02-23T06:06:50;23.77;;;22.37;;
15454;SDS011;21057;51.024;7.540;2024-02-23T06:09:17;24.87;;;23.13;;
15454;SDS011;21057;51.024;7.540;2024-02-23T06:11:45;23.90;;;22.50;;
15454;SDS011;21057;51.024;7.540;2024-02-23T06:14:13;23.80;;;22.33;;
15454;SDS011;21057;51.024;7.540;2024-02-23T06:16:40;23.90;;;22.50;;
15454;SDS011;21057;51.024;7.540;2024-02-23T06:19:07;24.17;;;22.77;;
15454;SDS011;21057;51.024;7.540;2024-02-23T06:21:34;23.80;;;22.40;;
15454;SDS011;21057;51.024;7.540;2024-02-23T06:24:01;23.80;;;22.40;;
15454;SDS011;21057;51.024;7.540;2024-02-23T06:26:28;23.53;;;22.13;;
15454;SDS011;21057;51.024;7.540;2024-02-23T06:28:54;24.43;;;23.03;;
15454;SDS011;21057;51.024;7.540;2024-02-23T06:31:23;24.43;;;23.03;;
15454;SDS011;21057;51.024;7.540;2024-02-23T06:33:50;25.10;;;23.60;;
15454;SDS011;21057;51.024;7.540;2024-02-23T06:36:17;25.20;;;23.70;;
15454;SDS011;21057;51.024;7.540;2024-02-23T06:38:44;26.03;;;24.50;;
15454;SDS011;21057;51.024;7.540;2024-02-23T06:41:11;25.23;;;23.73;;
15454;SDS011;21057;51.024;7.540;2024-02-23T06:43:38;24.17;;;22.77;;
15454;SDS011;21057;51.024;7.540;2024-02-23T06:46:06;24.70;;;23.20;;
15454;SDS011;21057;51.024;7.540;2024-02-23T06:48:34;23.97;;;22.57;;
15454;SDS011;21057;51.024;7.540;2024-02-23T06:51:01;25.40;;;23.90;;
15454;SDS011;21057;51.024;7.540;2024-02-23T06:53:28;25.27;;;23.57;;
15454;SDS011;21057;51.024;7.540;2024-02-23T06:55:55;25.23;;;23.50;;
15454;SDS011;21057;51.024;7.540;2024-02-23T06:58:24;26.03;;;24.33;;
15454;SDS011;21057;51.024;7.540;2024-02-23T07:00:50;24.40;;;22.90;;
15454;SDS011;21057;51.024;7.540;2024-02-23T07:03:17;25.07;;;23.57;;
15454;SDS011;21057;51.024;7.540;2024-02-23T07:05:45;24.07;;;22.57;;
15454;SDS011;21057;51.024;7.540;2024-02-23T07:08:15;24.67;;;23.17;;
15454;SDS011;21057;51.024;7.540;2024-02-23T07:10:41;25.17;;;23.07;;
15454;SDS011;21057;51.024;7.540;2024-02-23T07:13:08;24.60;;;23.10;;
15454;SDS011;21057;51.024;7.540;2024-02-23T07:15:35;23.87;;;22.37;;
15454;SDS011;21057;51.024;7.540;2024-02-23T07:18:02;23.40;;;21.90;;
15454;SDS011;21057;51.024;7.540;2024-02-23T07:20:29;25.17;;;23.30;;
15454;SDS011;21057;51.024;7.540;2024-02-23T07:22:57;23.70;;;22.13;;
15454;SDS011;21057;51.024;7.540;2024-02-23T07:25:24;25.10;;;23.60;;
15454;SDS011;21057;51.024;7.540;2024-02-23T07:27:51;22.73;;;21.33;;
15454;SDS011;21057;51.024;7.540;2024-02-23T07:30:18;23.00;;;21.60;;
15454;SDS011;21057;51.024;7.540;2024-02-23T07:32:45;23.30;;;21.80;;
15454;SDS011;21057;51.024;7.540;2024-02-23T07:35:12;22.70;;;21.30;;
15454;SDS011;21057;51.024;7.540;2024-02-23T07:37:39;23.10;;;21.70;;
15454;SDS011;21057;51.024;7.540;2024-02-23T07:40:07;25.13;;;23.00;;
15454;SDS011;21057;51.024;7.540;2024-02-23T07:42:34;24.20;;;22.70;;
15454;SDS011;21057;51.024;7.540;2024-02-23T07:45:02;24.80;;;22.93;;
15454;SDS011;21057;51.024;7.540;2024-02-23T07:47:30;23.17;;;21.67;;
15454;SDS011;21057;51.024;7.540;2024-02-23T07:49:57;23.13;;;21.73;;
15454;SDS011;21057;51.024;7.540;2024-02-23T07:52:23;23.10;;;21.70;;
15454;SDS011;21057;51.024;7.540;2024-02-23T07:54:51;22.70;;;21.30;;
15454;SDS011;21057;51.024;7.540;2024-02-23T07:57:19;22.50;;;21.10;;
15454;SDS011;21057;51.024;7.540;2024-02-23T07:59:46;24.00;;;22.50;;
15454;SDS011;21057;51.024;7.540;2024-02-23T08:02:14;23.13;;;21.73;;
15454;SDS011;21057;51.024;7.540;2024-02-23T08:04:41;22.77;;;21.47;;
15454;SDS011;21057;51.024;7.540;2024-02-23T08:07:08;23.53;;;22.13;;
15454;SDS011;21057;51.024;7.540;2024-02-23T08:09:35;22.97;;;21.57;;
15454;SDS011;21057;51.024;7.540;2024-02-23T08:12:02;23.63;;;22.00;;
15454;SDS011;21057;51.024;7.540;2024-02-23T08:14:31;22.57;;;21.17;;
15454;SDS011;21057;51.024;7.540;2024-02-23T08:16:58;22.07;;;20.77;;
15454;SDS011;21057;51.024;7.540;2024-02-23T08:19:24;23.50;;;21.73;;
15454;SDS011;21057;51.024;7.540;2024-02-23T08:21:51;23.23;;;21.83;;
15454;SDS011;21057;51.024;7.540;2024-02-23T08:24:18;22.27;;;20.87;;
15454;SDS011;21057;51.024;7.540;2024-02-23T08:26:45;22.10;;;20.70;;
15454;SDS011;21057;51.024;7.540;2024-02-23T08:29:12;21.93;;;20.63;;
15454;SDS011;21057;51.024;7.540;2024-02-23T08:31:40;21.17;;;19.87;;
15454;SDS011;21057;51.024;7.540;2024-02-23T08:34:07;20.90;;;19.53;;
15454;SDS011;21057;51.024;7.540;2024-02-23T08:36:34;21.63;;;20.23;;
15454;SDS011;21057;51.024;7.540;2024-02-23T08:39:01;22.00;;;20.60;;
15454;SDS011;21057;51.024;7.540;2024-02-23T08:41:28;22.37;;;20.97;;
15454;SDS011;21057;51.024;7.540;2024-02-23T08:43:55;22.00;;;20.70;;
15454;SDS011;21057;51.024;7.540;2024-02-23T08:46:21;23.40;;;21.30;;
15454;SDS011;21057;51.024;7.540;2024-02-23T08:48:50;21.73;;;20.43;;
15454;SDS011;21057;51.024;7.540;2024-02-23T08:51:16;22.63;;;21.23;;
15454;SDS011;21057;51.024;7.540;2024-02-23T08:53:43;23.10;;;21.60;;
15454;SDS011;21057;51.024;7.540;2024-02-23T08:56:10;22.60;;;21.20;;
15454;SDS011;21057;51.024;7.540;2024-02-23T08:58:38;23.70;;;22.20;;
15454;SDS011;21057;51.024;7.540;2024-02-23T09:01:05;24.37;;;22.87;;
15454;SDS011;21057;51.024;7.540;2024-02-23T09:03:32;23.70;;;22.20;;
15454;SDS011;21057;51.024;7.540;2024-02-23T09:06:00;23.87;;;22.17;;
15454;SDS011;21057;51.024;7.540;2024-02-23T09:08:26;23.43;;;22.03;;
15454;SDS011;21057;51.024;7.540;2024-02-23T09:10:53;25.03;;;23.27;;
15454;SDS011;21057;51.024;7.540;2024-02-23T09:13:20;26.27;;;23.47;;
15454;SDS011;21057;51.024;7.540;2024-02-23T09:15:47;23.07;;;21.67;;
15454;SDS011;21057;51.024;7.540;2024-02-23T09:18:13;25.00;;;22.67;;
15454;SDS011;21057;51.024;7.540;2024-02-23T09:20:40;23.03;;;21.63;;
15454;SDS011;21057;51.024;7.540;2024-02-23T09:23:08;23.30;;;21.90;;
15454;SDS011;21057;51.024;7.540;2024-02-23T09:25:35;22.00;;;20.70;;
15454;SDS011;21057;51.024;7.540;2024-02-23T09:28:02;22.60;;;21.30;;
15454;SDS011;21057;51.024;7.540;2024-02-23T09:30:29;23.27;;;21.87;;
15454;SDS011;21057;51.024;7.540;2024-02-23T09:32:56;22.33;;;21.03;;
15454;SDS011;21057;51.024;7.540;2024-02-23T09:35:23;23.27;;;21.87;;
15454;SDS011;21057;51.024;7.540;2024-02-23T09:37:49;22.80;;;21.20;;
15454;SDS011;21057;51.024;7.540;2024-02-23T09:40:18;22.80;;;21.40;;
15454;SDS011;21057;51.024;7.540;2024-02-23T09:42:47;26.00;;;23.87;;
15454;SDS011;21057;51.024;7.540;2024-02-23T09:45:21;23.37;;;21.97;;
15454;SDS011;21057;51.024;7.540;2024-02-23T09:47:48;23.63;;;22.23;;
15454;SDS011;21057;51.024;7.540;2024-02-23T09:50:15;23.70;;;22.20;;
15454;SDS011;21057;51.024;7.540;2024-02-23T09:52:46;23.27;;;21.87;;
15454;SDS011;21057;51.024;7.540;2024-02-23T09:55:15;23.43;;;21.93;;
15454;SDS011;21057;51.024;7.540;2024-02-23T09:57:44;23.77;;;22.17;;
15454;SDS011;21057;51.024;7.540;2024-02-23T10:00:17;23.47;;;21.97;;
15454;SDS011;21057;51.024;7.540;2024-02-23T10:02:44;23.30;;;21.90;;
15454;SDS011;21057;51.024;7.540;2024-02-23T10:05:11;24.20;;;22.70;;
15454;SDS011;21057;51.024;7.540;2024-02-23T10:07:40;23.93;;;22.43;;
15454;SDS011;21057;51.024;7.540;2024-02-23T10:10:07;23.70;;;22.20;;
15454;SDS011;21057;51.024;7.540;2024-02-23T10:12:36;22.47;;;21.17;;
15454;SDS011;21057;51.024;7.540;2024-02-23T10:15:04;22.90;;;21.37;;
15454;SDS011;21057;51.024;7.540;2024-02-23T10:17:32;23.63;;;22.03;;
15454;SDS011;21057;51.024;7.540;2024-02-23T10:19:59;22.47;;;21.00;;
15454;SDS011;21057;51.024;7.540;2024-02-23T10:22:30;22.43;;;21.03;;
15454;SDS011;21057;51.024;7.540;2024-02-23T10:24:57;22.73;;;21.33;;
15454;SDS011;21057;51.024;7.540;2024-02-23T10:27:23;21.50;;;20.10;;
15454;SDS011;21057;51.024;7.540;2024-02-23T10:29:49;21.97;;;20.53;;
15454;SDS011;21057;51.024;7.540;2024-02-23T10:32:18;22.63;;;20.77;;
15454;SDS011;21057;51.024;7.540;2024-02-23T10:34:47;22.23;;;20.70;;
15454;SDS011;21057;51.024;7.540;2024-02-23T10:37:15;20.53;;;19.17;;
15454;SDS011;21057;51.024;7.540;2024-02-23T10:39:42;22.23;;;20.17;;
15454;SDS011;21057;51.024;7.540;2024-02-23T10:42:09;21.37;;;20.07;;
15454;SDS011;21057;51.024;7.540;2024-02-23T10:44:37;20.47;;;19.17;;
15454;SDS011;21057;51.024;7.540;2024-02-23T10:47:05;21.00;;;19.50;;
15454;SDS011;21057;51.024;7.540;2024-02-23T10:49:34;21.63;;;20.27;;
15454;SDS011;21057;51.024;7.540;2024-02-23T10:52:05;22.20;;;20.80;;
15454;SDS011;21057;51.024;7.540;2024-02-23T10:54:37;21.63;;;20.23;;
15454;SDS011;21057;51.024;7.540;2024-02-23T10:57:05;23.10;;;21.13;;
15454;SDS011;21057;51.024;7.540;2024-02-23T10:59:32;22.33;;;20.93;;
15454;SDS011;21057;51.024;7.540;2024-02-23T11:01:59;21.50;;;20.20;;
15454;SDS011;21057;51.024;7.540;2024-02-23T11:04:27;21.27;;;19.87;;
15454;SDS011;21057;51.024;7.540;2024-02-23T11:06:57;21.83;;;20.03;;
15454;SDS011;21057;51.024;7.540;2024-02-23T11:09:29;21.57;;;19.77;;
15454;SDS011;21057;51.024;7.540;2024-02-23T11:11:58;21.70;;;20.30;;
15454;SDS011;21057;51.024;7.540;2024-02-23T11:14:29;22.20;;;20.60;;
15454;SDS011;21057;51.024;7.540;2024-02-23T11:16:57;22.13;;;20.57;;
15454;SDS011;21057;51.024;7.540;2024-02-23T11:19:31;20.37;;;19.07;;
15454;SDS011;21057;51.024;7.540;2024-02-23T11:22:01;21.63;;;20.23;;
15454;SDS011;21057;51.024;7.540;2024-02-23T11:24:28;21.47;;;20.17;;
15454;SDS011;21057;51.024;7.540;2024-02-23T11:26:58;19.97;;;18.77;;
15454;SDS011;21057;51.024;7.540;2024-02-23T11:29:33;19.67;;;18.47;;
15454;SDS011;21057;51.024;7.540;2024-02-23T11:32:01;19.27;;;18.07;;
15454;SDS011;21057;51.024;7.540;2024-02-23T11:34:29;20.90;;;19.20;;
15454;SDS011;21057;51.024;7.540;2024-02-23T11:36:56;22.27;;;20.07;;
15454;SDS011;21057;51.024;7.540;2024-02-23T11:39:25;21.27;;;19.97;;
15454;SDS011;21057;51.024;7.540;2024-02-23T11:41:53;19.97;;;18.77;;
15454;SDS011;21057;51.024;7.540;2024-02-23T11:44:20;19.50;;;18.30;;
15454;SDS011;21057;51.024;7.540;2024-02-23T11:46:47;18.90;;;17.80;;
15454;SDS011;21057;51.024;7.540;2024-02-23T11:49:14;19.87;;;18.67;;
15454;SDS011;21057;51.024;7.540;2024-02-23T11:51:41;19.90;;;18.70;;
15454;SDS011;21057;51.024;7.540;2024-02-23T11:54:08;21.37;;;20.07;;
15454;SDS011;21057;51.024;7.540;2024-02-23T11:56:36;20.70;;;19.17;;
15454;SDS011;21057;51.024;7.540;2024-02-23T11:59:03;20.03;;;18.83;;
15454;SDS011;21057;51.024;7.540;2024-02-23T12:01:30;19.57;;;18.27;;
15454;SDS011;21057;51.024;7.540;2024-02-23T12:03:57;20.07;;;18.87;;
15454;SDS011;21057;51.024;7.540;2024-02-23T12:06:24;20.57;;;19.27;;
15454;SDS011;21057;51.024;7.540;2024-02-23T12:08:54;20.07;;;18.73;;
15454;SDS011;21057;51.024;7.540;2024-02-23T12:11:21;20.03;;;18.83;;
15454;SDS011;21057;51.024;7.540;2024-02-23T12:13:49;19.60;;;18.40;;
15454;SDS011;21057;51.024;7.540;2024-02-23T12:16:16;20.20;;;18.53;;
15454;SDS011;21057;51.024;7.540;2024-02-23T12:18:43;19.83;;;18.63;;
15454;SDS011;21057;51.024;7.540;2024-02-23T12:21:10;21.37;;;19.97;;
15454;SDS011;21057;51.024;7.540;2024-02-23T12:23:39;19.97;;;18.77;;
15454;SDS011;21057;51.024;7.540;2024-02-23T12:26:07;21.10;;;19.80;;
15454;SDS011;21057;51.024;7.540;2024-02-23T12:28:35;20.23;;;18.93;;
15454;SDS011;21057;51.024;7.540;2024-02-23T12:31:05;20.10;;;18.70;;
15454;SDS011;21057;51.024;7.540;2024-02-23T12:33:32;21.10;;;19.80;;
15454;SDS011;21057;51.024;7.540;2024-02-23T12:36:00;22.13;;;20.40;;
15454;SDS011;21057;51.024;7.540;2024-02-23T12:38:29;21.20;;;19.90;;
15454;SDS011;21057;51.024;7.540;2024-02-23T12:40:57;20.77;;;19.47;;
15454;SDS011;21057;51.024;7.540;2024-02-23T12:43:24;20.27;;;19.07;;
15454;SDS011;21057;51.024;7.540;2024-02-23T12:45:50;21.57;;;19.97;;
15454;SDS011;21057;51.024;7.540;2024-02-23T12:48:19;21.80;;;20.10;;
15454;SDS011;21057;51.024;7.540;2024-02-23T12:50:46;20.90;;;19.60;;
15454;SDS011;21057;51.024;7.540;2024-02-23T12:53:29;20.50;;;19.30;;
15454;SDS011;21057;51.024;7.540;2024-02-23T12:55:58;20.30;;;19.10;;
15454;SDS011;21057;51.024;7.540;2024-02-23T12:58:25;21.47;;;20.17;;
15454;SDS011;21057;51.024;7.540;2024-02-23T13:00:52;21.20;;;19.90;;
15454;SDS011;21057;51.024;7.540;2024-02-23T13:03:20;22.23;;;20.93;;
15454;SDS011;21057;51.024;7.540;2024-02-23T13:05:47;21.47;;;20.17;;
15454;SDS011;21057;51.024;7.540;2024-02-23T13:08:14;21.27;;;19.77;;
15454;SDS011;21057;51.024;7.540;2024-02-23T13:10:41;21.30;;;19.80;;
15454;SDS011;21057;51.024;7.540;2024-02-23T13:13:08;21.50;;;20.07;;
15454;SDS011;21057;51.024;7.540;2024-02-23T13:15:35;21.00;;;19.67;;
15454;SDS011;21057;51.024;7.540;2024-02-23T13:18:02;21.80;;;20.50;;
15454;SDS011;21057;51.024;7.540;2024-02-23T13:20:31;21.73;;;20.43;;
15454;SDS011;21057;51.024;7.540;2024-02-23T13:22:57;21.67;;;20.33;;
15454;SDS011;21057;51.024;7.540;2024-02-23T13:25:24;20.53;;;19.23;;
15454;SDS011;21057;51.024;7.540;2024-02-23T13:27:51;21.70;;;20.50;;
15454;SDS011;21057;51.024;7.540;2024-02-23T13:30:18;22.73;;;21.30;;
15454;SDS011;21057;51.024;7.540;2024-02-23T13:32:45;20.47;;;19.30;;
15454;SDS011;21057;51.024;7.540;2024-02-23T13:35:12;22.03;;;20.83;;
15454;SDS011;21057;51.024;7.540;2024-02-23T13:37:40;22.03;;;20.70;;
15454;SDS011;21057;51.024;7.540;2024-02-23T13:40:08;21.40;;;20.10;;
15454;SDS011;21057;51.024;7.540;2024-02-23T13:42:36;22.13;;;20.83;;
15454;SDS011;21057;51.024;7.540;2024-02-23T13:45:04;21.60;;;20.40;;
15454;SDS011;21057;51.024;7.540;2024-02-23T13:47:32;21.40;;;20.10;;
15454;SDS011;21057;51.024;7.540;2024-02-23T13:49:59;21.30;;;20.10;;
15454;SDS011;21057;51.024;7.540;2024-02-23T13:52:26;23.60;;;22.20;;
15454;SDS011;21057;51.024;7.540;2024-02-23T13:54:54;22.40;;;21.03;;
15454;SDS011;21057;51.024;7.540;2024-02-23T13:57:21;22.90;;;21.43;;
15454;SDS011;21057;51.024;7.540;2024-02-23T13:59:48;22.20;;;20.90;;
15454;SDS011;21057;51.024;7.540;2024-02-23T14:02:14;21.20;;;19.60;;
15454;SDS011;21057;51.024;7.540;2024-02-23T14:04:43;21.20;;;19.90;;
15454;SDS011;21057;51.024;7.540;2024-02-23T14:07:11;21.30;;;20.10;;
15454;SDS011;21057;51.024;7.540;2024-02-23T14:09:38;21.07;;;19.60;;
15454;SDS011;21057;51.024;7.540;2024-02-23T14:12:06;20.63;;;19.43;;
15454;SDS011;21057;51.024;7.540;2024-02-23T14:14:33;20.57;;;19.33;;
15454;SDS011;21057;51.024;7.540;2024-02-23T14:17:00;21.13;;;19.83;;
15454;SDS011;21057;51.024;7.540;2024-02-23T14:19:27;21.67;;;20.33;;
15454;SDS011;21057;51.024;7.540;2024-02-23T14:21:54;21.83;;;20.43;;